Home > Products > Valid Products > TAF

000
FTUS43 KJKL 190800 AAA
TAFJKL
TAF AMD
KJKL 190810Z 1908/2006 00000KT P6SM BKN016 OVC060
     FM191500 VRB05KT P6SM FEW015 SCT060 BKN070
     FM191800 VRB05KT P6SM FEW060 SCT070=



000
FTUS43 KJKL 190500
TAFSME
TAF
KSME 190522Z 1906/2006 00000KT P6SM BKN050 OVC070
     FM191500 VRB05KT P6SM SCT050 BKN070
     FM191800 VRB05KT P6SM SCT050 SCT070=



000
FTUS43 KJKL 190500
TAFJKL
TAF
KJKL 190522Z 1906/2006 00000KT P6SM OVC070
     FM191500 VRB05KT P6SM SCT060 BKN070
     FM191800 VRB05KT P6SM FEW060 SCT070=



000
FTUS43 KJKL 190500
TAFLOZ
TAF
KLOZ 190522Z 1906/2006 34004KT P6SM OVC070
     FM191500 VRB05KT P6SM SCT050 BKN070
     FM191800 VRB05KT P6SM SCT050 SCT070=



000
FTUS43 KJKL 182300
TAFLOZ
TAF
KLOZ 182339Z 1900/1924 VRB03KT P6SM SCT025 OVC050
     FM191500 VRB05KT P6SM SCT080 BKN200=



000
FTUS43 KJKL 182300
TAFSME
TAF
KSME 182339Z 1900/1924 VRB03KT P6SM SCT025 OVC045
     FM191500 VRB05KT P6SM SCT080 BKN200=



000
FTUS43 KJKL 182300
TAFJKL
TAF
KJKL 182339Z 1900/1924 VRB05KT P6SM SCT050 OVC070
     FM191600 VRB05KT P6SM SCT080 BKN200=



000
FTUS43 KJKL 181700
TAFSME
TAF
KSME 181738Z 1818/1918 VRB05KT P6SM BKN080
     FM190000 VRB03KT P6SM OVC060
     FM190600 VRB03KT P6SM SCT030 BKN050
     FM191400 VRB05KT P6SM SCT020=



000
FTUS43 KJKL 181700
TAFLOZ
TAF
KLOZ 181738Z 1818/1918 VRB05KT P6SM BKN080
     FM190000 VRB03KT P6SM OVC060
     FM190600 VRB03KT P6SM SCT030 BKN050
     FM191400 VRB05KT P6SM SCT020=



000
FTUS43 KJKL 181700
TAFJKL
TAF
KJKL 181738Z 1818/1918 VRB05KT P6SM SCT020 BKN080
     FM190400 VRB03KT P6SM SCT015 BKN050
     FM191400 VRB05KT P6SM SCT020=



000
FTUS43 KJKL 181100
TAFJKL
TAF
KJKL 181138Z 1812/1912 VRB03KT P6SM OVC012
     FM181800 VRB03KT P6SM SCT025 BKN080
     FM190600 VRB03KT P6SM BKN050=



000
FTUS43 KJKL 181100
TAFLOZ
TAF
KLOZ 181138Z 1812/1912 VRB03KT P6SM FEW030 BKN100
     FM190000 VRB03KT P6SM OVC060
     FM190600 VRB03KT P6SM SCT030 BKN050=



000
FTUS43 KJKL 181100
TAFSME
TAF
KSME 181138Z 1812/1912 VRB03KT P6SM BKN100
     FM190000 VRB03KT P6SM OVC060
     FM190600 VRB03KT P6SM SCT030 BKN050=



000
FTUS43 KJKL 180600 AAA
TAFJKL
TAF AMD
KJKL 180618Z 1806/1906 VRB03KT P6SM BKN017
     FM181600 VRB03KT P6SM SCT030 BKN060=



000
FTUS43 KJKL 180500
TAFSME
TAF
KSME 180520Z 1806/1906 VRB03KT P6SM FEW100
     FM180900 VRB03KT P6SM BKN030 OVC060
     FM181600 VRB03KT P6SM SCT030 OVC060=



000
FTUS43 KJKL 180500
TAFJKL
TAF
KJKL 180520Z 1806/1906 VRB03KT P6SM SCT100
     FM180800 VRB03KT P6SM BKN017
     FM181600 VRB03KT P6SM SCT030 BKN060=



000
FTUS43 KJKL 180500
TAFLOZ
TAF
KLOZ 180520Z 1806/1906 VRB03KT P6SM FEW100
     FM180900 VRB03KT P6SM SCT015 BKN025
     FM181500 VRB03KT P6SM SCT030 OVC060=



000
FTUS43 KJKL 172300 RRA
TAFLOZ
TAF
KLOZ 172339Z 1800/1824 VRB03KT P6SM FEW100
     FM180900 VRB03KT P6SM BKN060
     FM181000 VRB03KT P6SM BKN030 OVC060=



000
FTUS43 KJKL 172300 RRA
TAFJKL
TAF
KJKL 172339Z 1800/1824 VRB03KT P6SM SCT100
     FM181100 VRB03KT P6SM BKN030 OVC060=



000
FTUS43 KJKL 172300 RRA
TAFSME
TAF
KSME 172339Z 1800/1824 VRB03KT P6SM FEW100
     FM180800 VRB03KT P6SM BKN060
     FM180900 VRB03KT P6SM BKN030 OVC060=



000
FTUS43 KJKL 172000 AAA
TAFLOZ
TAF AMD
KLOZ 172059Z 1721/1818 30005KT P6SM SCT025
     FM180200 VRB03KT P6SM SCT030 BKN070
     FM181300 VRB05KT P6SM BKN035=



000
FTUS43 KJKL 172000 AAA
TAFJKL
TAF AMD
KJKL 172042Z 1721/1818 27005KT P6SM SCT025
     FM180200 VRB03KT P6SM SCT030 BKN070
     FM181400 VRB05KT P6SM BKN035=



000
FTUS43 KJKL 172000 AAA
TAFSME
TAF AMD
KSME 172042Z 1721/1818 29005KT P6SM SKC
     FM180400 VRB03KT P6SM SCT030 BKN070
     FM181300 VRB05KT P6SM BKN035=



000
FTUS43 KJKL 171700
TAFSME
TAF
KSME 171736Z 1718/1818 28007KT P6SM OVC015
     FM172000 30005KT P6SM BKN025
     FM180000 VRB03KT P6SM SCT030 BKN070
     FM181300 VRB05KT P6SM BKN035=



000
FTUS43 KJKL 171700
TAFJKL
TAF
KJKL 171736Z 1718/1818 27004KT P6SM OVC015
     FM172100 27005KT P6SM BKN025
     FM180200 VRB03KT P6SM SCT030 BKN070
     FM181400 VRB05KT P6SM BKN035=



000
FTUS43 KJKL 171700
TAFLOZ
TAF
KLOZ 171736Z 1718/1818 29007KT P6SM OVC015
     FM172000 30005KT P6SM BKN025
     FM180000 VRB03KT P6SM SCT030 BKN070
     FM181300 VRB05KT P6SM BKN035=



000
FTUS43 KJKL 171300 AAA
TAFLOZ
TAF AMD
KLOZ 171352Z 1714/1812 30005KT P6SM OVC015
     FM171800 31005KT P6SM BKN025
     FM180000 VRB03KT P6SM SCT030 BKN070=



000
FTUS43 KJKL 171100 RRA
TAFLOZ
TAF
KLOZ 171149Z 1712/1812 28005KT P6SM -DZ OVC008
     FM171500 30005KT P6SM OVC015
     FM171800 31005KT P6SM BKN025
     FM180000 VRB03KT P6SM SCT030 BKN070=



000
FTUS43 KJKL 171100 RRA
TAFJKL
TAF
KJKL 171149Z 1712/1812 28006KT 2SM -DZ BR OVC002
     FM171500 27004KT 6SM -DZ OVC015
     FM171800 27005KT P6SM BKN025
     FM180200 VRB03KT P6SM SCT030 BKN070=



000
FTUS43 KJKL 171100 RRA
TAFSME
TAF
KSME 171149Z 1712/1812 28004KT P6SM -DZ OVC015
     FM171500 28004KT P6SM OVC015
     FM171700 28005KT P6SM BKN025
     FM180000 VRB03KT P6SM SCT030 BKN070=



000
FTUS43 KJKL 170900 AAA
TAFJKL
TAF AMD
KJKL 170927Z 1709/1806 28006KT 2SM -DZ BR OVC002
     FM171200 27004KT 6SM -DZ OVC020
     FM172000 27005KT P6SM BKN030
     FM172300 VRB03KT P6SM SCT030 BKN100=



000
FTUS43 KJKL 170500
TAFJKL
TAF
KJKL 170527Z 1706/1806 25006KT 6SM -DZ OVC012
     FM170900 26005KT 6SM -DZ OVC008
     FM171400 27004KT 6SM -DZ OVC020
     FM172000 27005KT P6SM BKN030
     FM172300 VRB03KT P6SM SCT030 BKN100=



000
FTUS43 KJKL 170500
TAFSME
TAF
KSME 170527Z 1706/1806 27009G14KT 6SM -DZ OVC015
     FM170700 29005KT 6SM -DZ OVC008
     FM171200 28004KT 6SM -DZ OVC020
     FM171800 28004KT P6SM BKN030
     FM172200 VRB03KT P6SM SCT030 BKN100=



000
FTUS43 KJKL 170500
TAFLOZ
TAF
KLOZ 170527Z 1706/1806 26006KT 6SM -DZ OVC015
     FM170900 28005KT 6SM -DZ OVC008
     FM171200 28005KT 6SM -DZ OVC020
     FM171900 31005KT P6SM BKN030
     FM172300 VRB03KT P6SM SCT030 BKN100=



000
FTUS43 KJKL 170400 AAB
TAFSME
TAF AMD
KSME 170411Z 1704/1724 26006KT 6SM -DZ OVC015
     FM170500 27004KT 6SM -DZ OVC008
     FM171000 28004KT 6SM -DZ OVC020
     FM171900 28004KT P6SM BKN030
     FM172200 VRB03KT P6SM BKN030=



000
FTUS43 KJKL 170300 AAA
TAFJKL
TAF AMD
KJKL 170353Z 1704/1724 25008KT 6SM -DZ OVC015
     FM170500 25006KT 6SM -DZ OVC008
     FM171400 27004KT 6SM -DZ OVC020
     FM172000 27005KT P6SM BKN030
     FM172300 VRB03KT P6SM BKN060=



000
FTUS43 KJKL 170300 AAA
TAFJKL
TAF AMD
KJKL 170353Z 1704/1724 25008KT 6SM -DZ OVC015
     FM170500 25006KT 6SM -DZ OVC008
     FM171400 27004KT 6SM -DZ OVC020
     FM172000 27005KT P6SM BKN030
     FM172300 VRB03KT P6SM BKN060=



000
FTUS43 KJKL 170300 AAA
TAFLOZ
TAF AMD
KLOZ 170353Z 1704/1724 26007KT 6SM -DZ OVC015
     FM170500 26006KT 6SM -DZ OVC008
     FM171200 28005KT 6SM -DZ OVC020
     FM172000 28005KT P6SM BKN030
     FM172300 29004KT P6SM BKN060=



000
FTUS43 KJKL 170300 AAA
TAFLOZ
TAF AMD
KLOZ 170353Z 1704/1724 26007KT 6SM -DZ OVC015
     FM170500 26006KT 6SM -DZ OVC008
     FM171200 28005KT 6SM -DZ OVC020
     FM172000 28005KT P6SM BKN030
     FM172300 29004KT P6SM BKN060=



000
FTUS43 KJKL 162300 AAA
TAFSME
TAF AMD
KSME 162343Z 1700/1724 26006KT 6SM -DZ OVC015
     FM170400 27004KT 6SM -DZ OVC008
     FM171000 28004KT 6SM -DZ OVC020
     FM171900 28004KT P6SM BKN030
     FM172200 VRB03KT P6SM BKN030=



000
FTUS43 KJKL 162300 CCA
TAFLOZ
TAF COR
KLOZ 162342Z 1700/1724 26007KT 6SM -DZ OVC015
     FM170400 26006KT 6SM -DZ OVC008
     FM171200 28005KT 6SM -DZ OVC020
     FM172000 28005KT P6SM BKN030
     FM172300 29004KT P6SM BKN060=



000
FTUS43 KJKL 162300 CCA
TAFJKL
TAF COR
KJKL 162340Z 1700/1724 25006G15KT 6SM -DZ OVC015
     FM170300 25006KT 6SM -DZ OVC008
     FM171400 27004KT 6SM -DZ OVC020
     FM172000 27005KT P6SM BKN030
     FM172300 VRB03KT P6SM BKN060=



000
FTUS43 KJKL 162300
TAFJKL
TAF
KJKL 162339Z 1700/1724 25006KT 6SM -DZ OVC020
     FM170300 25006KT 6SM -DZ OVC008
     FM171400 27004KT 6SM -DZ OVC020
     FM172000 27005KT P6SM BKN030
     FM172300 VRB03KT P6SM BKN060=



000
FTUS43 KJKL 162300
TAFLOZ
TAF
KLOZ 162339Z 1700/1724 26007KT 6SM -DZ OVC020
     FM170300 26006KT 6SM -DZ OVC008
     FM171200 28005KT 6SM -DZ OVC020
     FM172000 28005KT P6SM BKN030
     FM172300 29004KT P6SM BKN060=



000
FTUS43 KJKL 162300
TAFSME
TAF
KSME 162339Z 1700/1724 26006KT 6SM -DZ OVC020
     FM170400 27004KT 6SM -DZ OVC008
     FM170900 28004KT 6SM -DZ OVC020
     FM171900 28004KT P6SM BKN030
     FM172200 VRB03KT P6SM BKN030=



000
FTUS43 KJKL 162200 AAA
TAFSME
TAF AMD
KSME 162202Z 1622/1718 27012G20KT P6SM VCSH OVC025
     FM162300 27007KT 5SM -DZ BR OVC015
     FM171400 28007KT P6SM SCT015 BKN025=



000
FTUS43 KJKL 162200 AAA
TAFSME
TAF AMD
KSME 162202Z 1622/1718 27012G20KT P6SM VCSH OVC025
     FM162300 27007KT 5SM -DZ BR OVC015
     FM171400 28007KT P6SM SCT015 BKN025=



000
FTUS43 KJKL 162200 AAA
TAFLOZ
TAF AMD
KLOZ 162201Z 1622/1718 26009G18KT P6SM VCSH BKN025 OVC050
     FM162300 25010G20KT P6SM VCSH OVC020
     FM170100 26008KT 4SM -DZ BR OVC010
     FM171400 28007KT P6SM SCT015 BKN025=



000
FTUS43 KJKL 162100 AAB
TAFJKL
TAF AMD
KJKL 162109Z 1621/1718 24008G20KT P6SM VCSH BKN025 OVC050
     FM162300 25007G15KT 5SM -DZ BR OVC015
     FM170100 25008KT 3SM -DZ BR OVC008
     FM171400 28007KT P6SM SCT015 BKN025=



000
FTUS43 KJKL 162100 AAB
TAFJKL
TAF AMD
KJKL 162109Z 1621/1718 24008G20KT P6SM VCSH BKN025 OVC050
     FM162300 25007G15KT 5SM -DZ BR OVC015
     FM170100 25008KT 3SM -DZ BR OVC008
     FM171400 28007KT P6SM SCT015 BKN025=



000
FTUS43 KJKL 161900 AAA
TAFJKL
TAF AMD
KJKL 161914Z 1619/1718 24008G21KT P6SM VCSH BKN025 OVC050
     FM162100 25010G18KT 5SM -DZ BR OVC015
     FM162300 25008KT 3SM -DZ BR OVC008
     FM171400 28007KT P6SM SCT015 BKN025=



000
FTUS43 KJKL 161700
TAFSME
TAF
KSME 161737Z 1618/1718 27012G20KT P6SM VCSH OVC025
     FM162200 27007KT 4SM -DZ BR OVC010
     FM171400 28007KT P6SM SCT015 BKN025=



000
FTUS43 KJKL 161700
TAFLOZ
TAF
KLOZ 161737Z 1618/1718 26009G18KT P6SM VCSH BKN025 OVC050
     FM161900 25010G20KT P6SM VCSH OVC020
     FM162200 26008KT 4SM -DZ BR OVC010
     FM171400 28007KT P6SM SCT015 BKN025=



000
FTUS43 KJKL 161700
TAFJKL
TAF
KJKL 161737Z 1618/1718 24008G21KT P6SM VCSH BKN025 OVC050
     FM161900 25010G18KT P6SM VCSH OVC015
     FM162300 25008KT 3SM -DZ BR OVC008
     FM171400 28007KT P6SM SCT015 BKN025=



000
FTUS43 KJKL 161500 AAA
TAFSME
TAF AMD
KSME 161502Z 1615/1712 27012G20KT P6SM OVC025
     FM161700 26013G21KT P6SM VCSH OVC020
     FM162200 27007KT 4SM -DZ BR OVC010=



000
FTUS43 KJKL 161500 AAA
TAFJKL
TAF AMD
KJKL 161502Z 1615/1712 24007G15KT P6SM BKN025 OVC050
     FM161700 25010G18KT P6SM VCSH OVC015
     FM162300 25008KT 3SM -DZ BR OVC008=



000
FTUS43 KJKL 161500 AAA
TAFLOZ
TAF AMD
KLOZ 161502Z 1615/1712 26008G14KT P6SM BKN025 OVC050
     FM161700 25010G20KT P6SM VCSH OVC020
     FM162200 26008KT 4SM -DZ BR OVC010=



000
FTUS43 KJKL 161100
TAFSME
TAF
KSME 161138Z 1612/1712 22008KT P6SM OVC025
     FM161500 24010G18KT 4SM -DZ BR OVC022
     FM162200 27007KT 4SM -DZ BR OVC010=



000
FTUS43 KJKL 161100
TAFJKL
TAF
KJKL 161138Z 1612/1712 20006KT P6SM SCT035 OVC070
     FM161600 25010G15KT 4SM -DZ BR OVC025
     FM162200 25008KT 4SM -DZ BR OVC010=



000
FTUS43 KJKL 161100
TAFLOZ
TAF
KLOZ 161138Z 1612/1712 19008KT P6SM SCT035 BKN070
     FM161600 24010G18KT 4SM -DZ BR OVC030
     FM162200 26008KT 4SM -DZ BR OVC010=



000
FTUS43 KJKL 160900 AAA
TAFJKL
TAF AMD
KJKL 160939Z 1610/1706 21006KT P6SM -SHRA BKN035 OVC070
     FM161600 25010G15KT 4SM -DZ BR OVC025
     FM162200 25008KT 4SM -DZ BR OVC010=



000
FTUS43 KJKL 160900 AAA
TAFLOZ
TAF AMD
KLOZ 160937Z 1610/1706 19010KT P6SM VCSH BKN035
     FM161300 24010G15KT 4SM -DZ BR OVC030
     FM162200 26008KT 4SM -DZ BR OVC010=



000
FTUS43 KJKL 160900 AAA
TAFSME
TAF AMD
KSME 160935Z 1610/1706 22008KT P6SM VCSH OVC025
     FM161300 24010G18KT 4SM -DZ BR OVC022
     FM162200 25007KT 4SM -DZ BR OVC010=



    US Dept of Commerce
    National Oceanic and Atmospheric Administration
    National Weather Service
    1325 East West Highway
    Silver Spring, MD 20910
    Page Author: NWS Internet Services Team
Disclaimer
Information Quality
Credits
Glossary
Privacy Policy
Freedom of Information Act (FOIA)
About Us
Career Opportunities